Lewes Beach, Delaware
Current Conditions -  °F | °C
As of 1:54 PM on Thursday 27 Nov 2014 (Local Time) from KGED Reporting Station
Overcast Overcast  
Wind Chill: 38°   Ceiling: 4900
Heat Index: 42°   Visibility: 10mi
Dew Point: 32°   Wind: 6mph
Humidity: 67%   Direction: 290°WNW
Pressure: 30.02"   Gusts: NA
Location:  38.7339°N, 75.1733°W
Report Text: KGED 271854Z AUTO 29005KT 10SM OVC049 06/00 A3002 RMK AO2 SLP164 T00560000
Loading
Personal Weather Stations






























Interactive Weather Map New forecast layout! Learn more

10-Day Weather Forecast

Advertisements
Track Severe Weather on mobile